createdAt,value
2017-07-02T06:30:44.165Z,1011.3
2017-07-02T06:31:45.574Z,1011.5
2017-07-02T06:33:47.341Z,1011.5
2017-07-02T06:34:48.752Z,1011.5
2017-07-02T06:36:10.699Z,1011.5
2017-07-02T06:37:12.107Z,1011.6
2017-07-02T06:38:34.264Z,1011.6
2017-07-02T06:39:35.677Z,1011.6
2017-07-02T06:40:57.625Z,1011.5
2017-07-02T06:41:59.032Z,1011.5
2017-07-02T06:43:20.780Z,1011.6
2017-07-02T06:44:22.187Z,1011.6
2017-07-02T06:45:44.052Z,1011.5
2017-07-02T06:47:25.893Z,1011.6
2017-07-02T06:48:27.298Z,1011.6
2017-07-02T06:49:49.290Z,1011.6
2017-07-02T06:50:50.697Z,1011.5
2017-07-02T06:52:12.648Z,1011.5
2017-07-02T06:53:14.055Z,1011.5
2017-07-02T06:54:36.005Z,1011.5
2017-07-02T06:55:37.413Z,1011.6
2017-07-02T06:56:59.370Z,1011.6
2017-07-02T06:58:00.775Z,1011.6
2017-07-02T06:59:22.731Z,1011.6
2017-07-02T07:00:24.137Z,1011.6
2017-07-02T07:01:46.093Z,1011.7
2017-07-02T07:02:47.521Z,1011.8
2017-07-02T07:04:09.455Z,1011.8
2017-07-02T07:05:10.861Z,1011.7
2017-07-02T07:06:32.814Z,1011.7
2017-07-02T07:07:34.220Z,1011.7
2017-07-02T07:08:56.170Z,1011.6
2017-07-02T07:09:57.576Z,1011.6
2017-07-02T07:11:19.535Z,1011.6
2017-07-02T07:12:20.939Z,1011.6
2017-07-02T07:13:42.892Z,1011.7
2017-07-02T07:14:44.300Z,1011.7
2017-07-02T07:16:06.254Z,1011.7
2017-07-02T07:17:07.662Z,1011.8
2017-07-02T07:18:29.614Z,1011.7
2017-07-02T07:19:31.022Z,1011.7
2017-07-02T07:20:52.974Z,1011.7
2017-07-02T07:21:54.382Z,1011.7
2017-07-02T07:23:16.335Z,1011.7
2017-07-02T07:24:17.744Z,1011.7
2017-07-02T07:25:39.716Z,1011.8
2017-07-02T07:26:41.125Z,1011.8
2017-07-02T07:28:03.057Z,1011.9
2017-07-02T07:29:04.464Z,1011.8
2017-07-02T07:30:06.116Z,1011.8
2017-07-02T07:31:07.523Z,1011.9
2017-07-02T07:32:09.201Z,1012.0
2017-07-02T07:33:10.610Z,1012.0
2017-07-02T07:34:12.023Z,1012.0
2017-07-02T07:35:13.523Z,1012.0
2017-07-02T07:36:14.929Z,1011.9
2017-07-02T07:37:16.343Z,1012.0
2017-07-02T07:38:17.836Z,1012.1
2017-07-02T07:39:19.252Z,1012.1
2017-07-02T07:40:20.662Z,1012.1
2017-07-02T07:41:22.071Z,1012.1
2017-07-02T07:42:23.603Z,1012.1
2017-07-02T07:43:25.008Z,1012.1
2017-07-02T07:44:26.893Z,1012.1
2017-07-02T07:45:28.338Z,1012.1
2017-07-02T07:46:29.980Z,1012.0
2017-07-02T07:47:31.389Z,1012.0
2017-07-02T07:48:33.088Z,1012.0
2017-07-02T07:49:34.499Z,1011.9
2017-07-02T07:50:36.151Z,1011.9
2017-07-02T07:51:37.560Z,1011.9
2017-07-02T07:52:39.235Z,1011.9
2017-07-02T07:53:40.644Z,1012.1
2017-07-02T07:54:42.057Z,1012.1
2017-07-02T07:55:43.555Z,1011.9
2017-07-02T07:56:44.971Z,1011.8
2017-07-02T07:57:46.376Z,1011.8
2017-07-02T07:58:47.877Z,1011.9
2017-07-02T07:59:49.286Z,1012.0
2017-07-02T08:00:50.972Z,1011.9
2017-07-02T08:01:52.382Z,1011.9
2017-07-02T08:02:54.047Z,1012.0
2017-07-02T08:03:55.457Z,1012.0
2017-07-02T08:04:57.133Z,1011.9
2017-07-02T08:05:58.535Z,1012.0
2017-07-02T08:07:00.218Z,1012.0
2017-07-02T08:08:01.628Z,1012.0
2017-07-02T08:09:03.303Z,1011.9
2017-07-02T08:10:04.713Z,1012.0
2017-07-02T08:11:06.122Z,1012.2
2017-07-02T08:12:07.624Z,1012.1
2017-07-02T08:13:09.032Z,1012.0
2017-07-02T08:14:10.464Z,1012.1
2017-07-02T08:15:12.151Z,1012.1
2017-07-02T08:16:13.563Z,1012.1
2017-07-02T08:17:14.976Z,1012.0
2017-07-02T08:18:16.526Z,1012.1
2017-07-02T08:19:17.914Z,1012.1
2017-07-02T08:20:19.325Z,1012.1
2017-07-02T08:21:20.996Z,1012.2
2017-07-02T08:22:22.405Z,1012.0
2017-07-02T08:23:23.817Z,1012.0
2017-07-02T08:24:25.317Z,1012.0
2017-07-02T08:25:26.726Z,1012.1
2017-07-02T08:26:28.135Z,1012.0
2017-07-02T08:27:29.638Z,1012.0
2017-07-02T08:28:31.045Z,1012.0
2017-07-02T08:29:32.573Z,1011.9
2017-07-02T08:30:34.165Z,1012.0
2017-07-02T08:31:35.574Z,1011.8
2017-07-02T08:32:36.984Z,1011.9
2017-07-02T08:33:38.864Z,1011.9
2017-07-02T08:34:40.271Z,1011.8
2017-07-02T08:35:41.684Z,1011.9
2017-07-02T08:36:43.216Z,1011.9
2017-07-02T08:37:44.627Z,1012.0
2017-07-02T08:38:46.302Z,1011.9
2017-07-02T08:39:47.715Z,1011.9
2017-07-02T08:40:49.122Z,1011.9
2017-07-02T08:41:50.623Z,1011.9
2017-07-02T08:42:52.030Z,1012.0
2017-07-02T08:43:53.441Z,1012.0
2017-07-02T08:44:54.954Z,1012.0
2017-07-02T08:45:56.354Z,1012.0
2017-07-02T08:46:57.763Z,1012.0
2017-07-02T08:47:59.476Z,1012.0
2017-07-02T08:49:00.886Z,1012.0
2017-07-02T08:50:02.296Z,1012.0
2017-07-02T08:51:03.734Z,1012.0
2017-07-02T08:52:05.152Z,1012.0
2017-07-02T08:53:06.610Z,1012.0
2017-07-02T08:54:08.026Z,1012.0
2017-07-02T08:55:09.493Z,1012.0
2017-07-02T08:56:10.903Z,1012.1
2017-07-02T08:57:12.375Z,1012.0
2017-07-02T08:58:13.787Z,1012.1
2017-07-02T08:59:15.254Z,1012.1
2017-07-02T09:00:16.666Z,1012.1
2017-07-02T09:01:18.138Z,1012.1
2017-07-02T09:02:19.545Z,1012.1
2017-07-02T09:03:21.020Z,1012.1
2017-07-02T09:04:22.425Z,1012.1
2017-07-02T09:05:23.834Z,1012.1
2017-07-02T09:06:25.341Z,1012.1
2017-07-02T09:07:26.750Z,1012.0
2017-07-02T09:08:28.161Z,1012.0
2017-07-02T09:09:29.688Z,1012.0
2017-07-02T09:10:31.102Z,1012.2
2017-07-02T09:11:32.510Z,1012.1
2017-07-02T09:12:33.981Z,1012.1
2017-07-02T09:13:35.391Z,1012.1
2017-07-02T09:14:36.865Z,1012.2
2017-07-02T09:15:38.294Z,1012.2
2017-07-02T09:16:39.706Z,1012.1
2017-07-02T09:17:41.186Z,1012.2
2017-07-02T09:18:42.595Z,1012.2
2017-07-02T09:19:44.005Z,1012.2
2017-07-02T09:20:45.508Z,1012.2
2017-07-02T09:21:46.920Z,1012.3
2017-07-02T09:22:48.329Z,1012.3
2017-07-02T09:23:49.830Z,1012.3
2017-07-02T09:24:51.240Z,1012.3
2017-07-02T09:25:52.649Z,1012.3
2017-07-02T09:26:54.151Z,1012.3
2017-07-02T09:27:55.564Z,1012.4
2017-07-02T09:28:56.973Z,1012.4
2017-07-02T09:29:58.474Z,1012.5
2017-07-02T09:30:59.883Z,1012.5
2017-07-02T09:32:01.353Z,1012.6
2017-07-02T09:33:02.764Z,1012.6
2017-07-02T09:34:04.234Z,1012.6
2017-07-02T09:35:05.653Z,1012.6
2017-07-02T09:36:07.116Z,1012.7
2017-07-02T09:37:08.527Z,1012.7
2017-07-02T09:38:09.994Z,1012.6
2017-07-02T09:39:11.406Z,1012.5
2017-07-02T09:40:12.885Z,1012.4
2017-07-02T09:41:14.285Z,1012.5
2017-07-02T09:42:15.760Z,1012.5
2017-07-02T09:43:17.165Z,1012.4
2017-07-02T09:44:18.639Z,1012.6
2017-07-02T09:45:20.075Z,1012.6
2017-07-02T09:46:21.488Z,1012.5
2017-07-02T09:47:22.960Z,1012.5
2017-07-02T09:48:24.367Z,1012.5
2017-07-02T09:49:25.778Z,1012.5
2017-07-02T09:50:27.281Z,1012.5
2017-07-02T09:51:28.695Z,1012.5
2017-07-02T09:52:30.099Z,1012.6
2017-07-02T09:53:31.605Z,1012.6
2017-07-02T09:54:33.015Z,1012.6
2017-07-02T09:55:34.426Z,1012.6
2017-07-02T09:56:35.986Z,1012.7
2017-07-02T09:57:37.398Z,1012.6
2017-07-02T09:58:39.012Z,1012.7
2017-07-02T09:59:40.422Z,1012.7
2017-07-02T10:00:41.892Z,1012.6
2017-07-02T10:01:43.305Z,1012.7
2017-07-02T10:02:44.766Z,1012.7
2017-07-02T10:03:46.243Z,1012.6
2017-07-02T10:04:47.655Z,1012.7
2017-07-02T10:05:49.065Z,1012.6
2017-07-02T10:06:50.536Z,1012.6
2017-07-02T10:07:51.946Z,1012.7
2017-07-02T10:08:53.417Z,1012.7
2017-07-02T10:09:54.828Z,1012.7
2017-07-02T10:10:56.296Z,1012.7
2017-07-02T10:11:57.706Z,1012.6
2017-07-02T10:12:59.179Z,1012.7
2017-07-02T10:14:00.586Z,1012.7
2017-07-02T10:15:02.061Z,1012.8
2017-07-02T10:16:03.472Z,1012.8
2017-07-02T10:17:04.976Z,1012.7
2017-07-02T10:18:06.386Z,1012.8
2017-07-02T10:19:07.858Z,1012.8
2017-07-02T10:20:09.646Z,1012.8
2017-07-02T10:21:11.148Z,1012.8
2017-07-02T10:22:12.559Z,1012.8
2017-07-02T10:23:14.028Z,1012.8
2017-07-02T10:24:15.436Z,1012.9
2017-07-02T10:25:16.910Z,1012.8
2017-07-02T10:26:18.322Z,1012.8
2017-07-02T10:27:19.790Z,1012.9
2017-07-02T10:28:21.199Z,1012.9
2017-07-02T10:29:22.671Z,1012.8
2017-07-02T10:30:24.080Z,1012.9
2017-07-02T10:31:25.553Z,1012.9
2017-07-02T10:32:26.961Z,1013.0
2017-07-02T10:33:28.431Z,1013.1
2017-07-02T10:34:29.840Z,1013.0
2017-07-02T10:35:31.311Z,1013.0
2017-07-02T10:36:32.716Z,1013.1
2017-07-02T10:37:34.184Z,1013.0
2017-07-02T10:38:35.599Z,1012.9
2017-07-02T10:39:37.076Z,1012.9
2017-07-02T10:40:38.556Z,1012.9
2017-07-02T10:41:40.158Z,1013.0
2017-07-02T10:42:41.564Z,1012.9
2017-07-02T10:43:43.039Z,1012.9
2017-07-02T10:44:44.448Z,1013.0
2017-07-02T10:45:45.918Z,1013.0
2017-07-02T10:46:47.330Z,1013.1
2017-07-02T10:47:48.741Z,1013.1
2017-07-02T10:48:50.240Z,1013.1
2017-07-02T10:49:51.647Z,1013.1
2017-07-02T10:50:53.054Z,1013.1
2017-07-02T10:51:54.562Z,1013.2
2017-07-02T10:52:55.972Z,1013.2
2017-07-02T10:53:57.382Z,1013.1
2017-07-02T10:54:58.881Z,1013.4
2017-07-02T10:56:00.294Z,1013.2
2017-07-02T10:57:01.703Z,1013.0
2017-07-02T10:58:03.204Z,1013.1
2017-07-02T10:59:05.196Z,1013.0
2017-07-02T11:00:06.697Z,1012.9
2017-07-02T11:01:08.115Z,1012.8
2017-07-02T11:02:09.577Z,1013.0
2017-07-02T11:03:10.989Z,1012.9
2017-07-02T11:04:23.624Z,1012.9
2017-07-02T11:05:25.032Z,1012.9
2017-07-02T11:06:26.602Z,1012.9
2017-07-02T11:07:28.014Z,1013.1
2017-07-02T11:08:29.430Z,1013.1
2017-07-02T11:09:30.923Z,1012.8
2017-07-02T11:10:32.378Z,1012.9
2017-07-02T11:11:33.744Z,1012.9
2017-07-02T11:12:35.245Z,1013.0
2017-07-02T11:13:36.659Z,1013.2
2017-07-02T11:14:38.070Z,1013.2
2017-07-02T11:15:39.566Z,1012.9
2017-07-02T11:16:40.977Z,1013.1
2017-07-02T11:17:42.387Z,1013.2
2017-07-02T11:18:43.893Z,1013.1
2017-07-02T11:19:45.586Z,1013.0
2017-07-02T11:20:46.995Z,1012.9
2017-07-02T11:21:48.620Z,1013.0
2017-07-02T11:22:50.027Z,1013.0
2017-07-02T11:23:51.816Z,1013.0
2017-07-02T11:24:53.353Z,1013.0
2017-07-02T11:25:54.764Z,1013.0
2017-07-02T11:26:56.172Z,1013.0
2017-07-02T11:27:57.673Z,1013.0
2017-07-02T11:28:59.084Z,1012.9
2017-07-02T11:30:00.490Z,1012.9
2017-07-02T11:31:01.994Z,1012.8
2017-07-02T11:32:03.406Z,1012.9
2017-07-02T11:33:04.817Z,1012.8
2017-07-02T11:34:06.310Z,1012.8
2017-07-02T11:35:07.721Z,1012.7
2017-07-02T11:36:09.408Z,1012.8
2017-07-02T11:37:10.815Z,1012.8
2017-07-02T11:38:12.230Z,1012.8
2017-07-02T11:39:13.720Z,1012.8
2017-07-02T11:40:15.130Z,1012.8
2017-07-02T11:41:16.559Z,1012.8
2017-07-02T11:42:18.040Z,1012.9
2017-07-02T11:43:19.455Z,1012.8
2017-07-02T11:44:20.861Z,1012.9
2017-07-02T11:45:22.362Z,1012.9
2017-07-02T11:46:23.773Z,1012.8
2017-07-02T11:47:25.191Z,1012.8
2017-07-02T11:48:26.675Z,1012.8
2017-07-02T11:49:28.086Z,1012.8
2017-07-02T11:50:29.494Z,1012.8
2017-07-02T11:51:31.003Z,1012.8
2017-07-02T11:52:32.421Z,1012.8
2017-07-02T11:53:33.822Z,1012.9
2017-07-02T11:54:35.323Z,1012.9
2017-07-02T11:55:36.732Z,1013.0
2017-07-02T11:56:38.146Z,1013.1
2017-07-02T11:57:39.759Z,1013.1
2017-07-02T11:58:41.174Z,1013.3
2017-07-02T11:59:42.729Z,1013.4
2017-07-02T12:00:44.146Z,1013.5
2017-07-02T12:01:45.610Z,1013.4
2017-07-02T12:02:47.027Z,1013.5
2017-07-02T12:03:48.489Z,1013.4
2017-07-02T12:04:49.901Z,1013.5
2017-07-02T12:05:51.380Z,1013.6
2017-07-02T12:06:52.792Z,1013.6
2017-07-02T12:07:54.250Z,1014.0
2017-07-02T12:08:55.661Z,1013.9
2017-07-02T12:09:57.133Z,1013.7
2017-07-02T12:10:58.544Z,1013.6
2017-07-02T12:12:00.027Z,1013.6
2017-07-02T12:13:01.441Z,1013.7
2017-07-02T12:14:02.858Z,1014.1
2017-07-02T12:15:04.345Z,1013.8
2017-07-02T12:16:05.755Z,1013.7
2017-07-02T12:17:07.162Z,1013.5
2017-07-02T12:18:08.651Z,1013.5
2017-07-02T12:19:10.064Z,1013.6
2017-07-02T12:20:11.475Z,1013.6
2017-07-02T12:21:13.083Z,1013.6
2017-07-02T12:22:14.499Z,1013.8
2017-07-02T12:23:15.916Z,1015.2
2017-07-02T12:24:17.605Z,1014.3
2017-07-02T12:25:19.014Z,1013.5
2017-07-02T12:26:20.428Z,1014.3
2017-07-02T12:27:22.127Z,1014.2
2017-07-02T12:28:23.544Z,1013.9
2017-07-02T12:29:24.956Z,1013.9
2017-07-02T12:30:26.651Z,1013.9
2017-07-02T12:31:28.067Z,1013.7
2017-07-02T12:32:29.481Z,1013.5
2017-07-02T12:33:31.204Z,1013.6
2017-07-02T12:34:32.595Z,1013.6
2017-07-02T12:35:34.006Z,1013.5
2017-07-02T12:36:35.719Z,1013.6
2017-07-02T12:37:37.139Z,1015.0
2017-07-02T12:38:38.543Z,1014.1
2017-07-02T12:39:40.224Z,1014.0
2017-07-02T12:40:41.673Z,1013.9
2017-07-02T12:41:43.319Z,1013.7
2017-07-02T12:42:45.770Z,1013.4
2017-07-02T12:43:47.433Z,1013.4
2017-07-02T12:44:48.842Z,1013.3
2017-07-02T12:45:50.514Z,1013.5
2017-07-02T12:46:51.926Z,1013.6
2017-07-02T12:47:53.601Z,1013.5
2017-07-02T12:48:55.014Z,1013.6
2017-07-02T12:49:56.682Z,1013.7
2017-07-02T12:50:58.095Z,1013.8
2017-07-02T12:51:59.767Z,1013.7
2017-07-02T12:53:01.180Z,1013.7
2017-07-02T12:54:02.590Z,1013.5
2017-07-02T12:55:04.294Z,1013.4
2017-07-02T12:56:05.708Z,1013.4
2017-07-02T12:57:07.120Z,1013.4
2017-07-02T12:58:08.825Z,1013.5
2017-07-02T12:59:10.233Z,1013.7
2017-07-02T13:00:11.960Z,1013.6
2017-07-02T13:01:13.313Z,1013.5
2017-07-02T13:02:15.368Z,1013.5
2017-07-02T13:03:16.783Z,1013.7
2017-07-02T13:04:18.197Z,1013.5
2017-07-02T13:05:19.921Z,1013.6
2017-07-02T13:06:21.336Z,1013.6
2017-07-02T13:07:22.748Z,1013.6
2017-07-02T13:08:24.454Z,1013.5
2017-07-02T13:09:25.863Z,1013.6
2017-07-02T13:10:27.276Z,1013.6
2017-07-02T13:11:28.979Z,1013.6
2017-07-02T13:12:30.394Z,1013.6
2017-07-02T13:13:31.802Z,1013.5
2017-07-02T13:14:33.503Z,1013.5
2017-07-02T13:15:34.914Z,1013.7
2017-07-02T13:16:36.586Z,1013.5
2017-07-02T13:17:37.998Z,1013.5
2017-07-02T13:18:39.796Z,1013.5
2017-07-02T13:19:41.210Z,1013.6
2017-07-02T13:20:43.003Z,1013.7
2017-07-02T13:21:44.415Z,1013.7
2017-07-02T13:22:45.829Z,1013.6
2017-07-02T13:23:47.876Z,1013.7
2017-07-02T13:24:49.302Z,1013.7
2017-07-02T13:25:50.713Z,1013.8
2017-07-02T13:26:52.425Z,1014.0
2017-07-02T13:27:53.833Z,1014.0
2017-07-02T13:28:55.246Z,1013.9
2017-07-02T13:29:56.954Z,1013.6
2017-07-02T13:30:58.377Z,1013.5
2017-07-02T13:31:59.838Z,1013.4
2017-07-02T13:33:01.485Z,1013.4
2017-07-02T13:34:02.899Z,1013.4
2017-07-02T13:35:04.307Z,1013.7
2017-07-02T13:36:06.203Z,1013.6
2017-07-02T13:37:07.614Z,1013.5
2017-07-02T13:38:09.291Z,1013.2
2017-07-02T13:39:10.699Z,1013.4
2017-07-02T13:40:12.381Z,1013.3
2017-07-02T13:41:13.784Z,1013.4
2017-07-02T13:42:15.460Z,1013.5
2017-07-02T13:43:16.869Z,1013.5
2017-07-02T13:44:18.283Z,1013.5
2017-07-02T13:45:19.986Z,1013.6
2017-07-02T13:46:21.396Z,1013.3
2017-07-02T13:47:22.810Z,1013.2
2017-07-02T13:48:24.513Z,1013.3
2017-07-02T13:49:25.921Z,1013.3
2017-07-02T13:50:27.330Z,1013.2
2017-07-02T13:51:29.034Z,1013.2
2017-07-02T13:52:30.445Z,1013.3
2017-07-02T13:53:31.859Z,1013.3
2017-07-02T13:54:33.560Z,1013.5
2017-07-02T13:55:34.972Z,1013.6
2017-07-02T13:56:36.644Z,1013.5
2017-07-02T13:57:38.056Z,1013.3
2017-07-02T13:58:39.805Z,1013.5
2017-07-02T13:59:41.181Z,1013.6
2017-07-02T14:00:42.815Z,1013.5
2017-07-02T14:01:44.226Z,1013.3
2017-07-02T14:02:45.903Z,1013.3
2017-07-02T14:03:47.309Z,1013.3
2017-07-02T14:04:49.074Z,1013.2
2017-07-02T14:05:50.520Z,1013.3
2017-07-02T14:06:52.073Z,1013.5
2017-07-02T14:07:53.734Z,1013.5
2017-07-02T14:08:55.888Z,1013.3
2017-07-02T14:09:57.816Z,1013.3
2017-07-02T14:10:59.800Z,1013.3
2017-07-02T14:12:01.796Z,1013.2
2017-07-02T14:13:03.377Z,1013.2
2017-07-02T14:14:04.787Z,1013.2
2017-07-02T14:15:06.196Z,1013.2
2017-07-02T14:16:07.698Z,1013.1
2017-07-02T14:17:09.109Z,1013.1
2017-07-02T14:18:10.780Z,1013.1
2017-07-02T14:19:12.226Z,1013.0
2017-07-02T14:20:13.644Z,1013.0
2017-07-02T14:21:15.305Z,1012.9
2017-07-02T14:22:16.714Z,1012.9
2017-07-02T14:23:18.124Z,1012.9
2017-07-02T14:24:19.626Z,1012.9
2017-07-02T14:25:21.033Z,1013.0
2017-07-02T14:26:22.711Z,1012.9
2017-07-02T14:27:24.120Z,1013.0
2017-07-02T14:28:25.800Z,1013.0
2017-07-02T14:29:27.210Z,1013.0
2017-07-02T14:30:28.882Z,1013.0
2017-07-02T14:31:30.297Z,1013.0
2017-07-02T14:32:31.967Z,1013.0
2017-07-02T14:33:33.373Z,1013.0
2017-07-02T14:34:35.052Z,1013.0
2017-07-02T14:35:36.464Z,1012.9
2017-07-02T14:36:38.139Z,1012.9
2017-07-02T14:37:39.549Z,1013.0
2017-07-02T14:38:41.224Z,1013.1
2017-07-02T14:39:42.632Z,1013.1
2017-07-02T14:40:44.044Z,1013.1
2017-07-02T14:41:45.546Z,1013.1
2017-07-02T14:42:46.957Z,1013.1
2017-07-02T14:43:48.369Z,1013.1
2017-07-02T14:44:49.867Z,1013.0
2017-07-02T14:45:51.276Z,1013.1
2017-07-02T14:46:52.951Z,1013.0
2017-07-02T14:47:54.359Z,1013.0
2017-07-02T14:48:56.037Z,1013.1
2017-07-02T14:49:57.882Z,1013.1
2017-07-02T14:50:59.308Z,1013.1
2017-07-02T14:52:01.933Z,1013.1
2017-07-02T14:53:03.340Z,1013.2
2017-07-02T14:54:04.907Z,1013.2
2017-07-02T14:55:06.526Z,1013.3
2017-07-02T14:56:07.934Z,1013.3
2017-07-02T14:57:09.608Z,1013.5
2017-07-02T14:58:11.025Z,1013.5
2017-07-02T14:59:12.710Z,1013.6
2017-07-02T15:00:14.125Z,1013.6
2017-07-02T15:01:15.700Z,1013.5
2017-07-02T15:02:17.222Z,1013.5
2017-07-02T15:03:18.630Z,1013.4
2017-07-02T15:04:20.037Z,1013.3
2017-07-02T15:05:21.540Z,1013.2
2017-07-02T15:06:22.953Z,1013.3
2017-07-02T15:07:24.359Z,1013.3
2017-07-02T15:08:25.863Z,1013.2
2017-07-02T15:09:27.372Z,1013.2
2017-07-02T15:10:28.779Z,1013.4
2017-07-02T15:11:30.387Z,1013.4
2017-07-02T15:12:31.794Z,1013.4
2017-07-02T15:13:33.205Z,1013.3
2017-07-02T15:14:34.707Z,1013.3
2017-07-02T15:15:36.116Z,1013.2
2017-07-02T15:16:37.555Z,1013.3
2017-07-02T15:17:39.029Z,1013.2
2017-07-02T15:18:40.456Z,1013.2
2017-07-02T15:19:41.871Z,1013.3
2017-07-02T15:20:43.554Z,1013.4
2017-07-02T15:21:44.968Z,1013.5
2017-07-02T15:22:46.778Z,1013.5
2017-07-02T15:23:48.285Z,1013.4
2017-07-02T15:24:49.698Z,1013.4
2017-07-02T15:25:51.578Z,1013.2
2017-07-02T15:26:53.218Z,1013.3
2017-07-02T15:27:54.629Z,1013.2
2017-07-02T15:28:56.304Z,1013.2
2017-07-02T15:29:57.714Z,1013.2
2017-07-02T15:30:59.390Z,1013.2
2017-07-02T15:32:00.803Z,1013.3
2017-07-02T15:33:02.526Z,1013.4
2017-07-02T15:34:03.937Z,1013.4
2017-07-02T15:35:05.966Z,1013.4
2017-07-02T15:36:07.377Z,1013.3
2017-07-02T15:37:09.058Z,1013.3
2017-07-02T15:38:10.464Z,1013.2
2017-07-02T15:39:12.142Z,1013.2
2017-07-02T15:40:13.586Z,1013.2
2017-07-02T15:41:14.959Z,1013.2
2017-07-02T15:42:16.462Z,1013.2
2017-07-02T15:43:17.871Z,1013.2
2017-07-02T15:44:19.277Z,1013.4
2017-07-02T15:45:20.782Z,1013.3
2017-07-02T15:46:22.194Z,1013.2
2017-07-02T15:47:23.689Z,1013.3
2017-07-02T15:48:25.310Z,1013.3
2017-07-02T15:49:26.718Z,1013.2
2017-07-02T15:50:28.128Z,1013.2
2017-07-02T15:51:29.629Z,1013.2
2017-07-02T15:52:31.037Z,1013.3
2017-07-02T15:53:32.715Z,1013.4
2017-07-02T15:54:34.123Z,1013.5
2017-07-02T15:55:35.553Z,1013.4
2017-07-02T15:56:37.035Z,1013.3
2017-07-02T15:57:38.448Z,1013.2
2017-07-02T15:58:39.853Z,1013.3
2017-07-02T15:59:41.358Z,1013.4
2017-07-02T16:00:42.770Z,1013.5
2017-07-02T16:01:44.180Z,1013.5
2017-07-02T16:02:45.676Z,1013.3
2017-07-02T16:03:47.089Z,1013.3
2017-07-02T16:04:48.768Z,1013.4
2017-07-02T16:05:50.169Z,1013.4
2017-07-02T16:06:51.643Z,1013.3
2017-07-02T16:07:53.052Z,1013.4
2017-07-02T16:08:54.522Z,1013.5
2017-07-02T16:09:55.930Z,1013.5
2017-07-02T16:10:57.609Z,1013.3
2017-07-02T16:11:59.020Z,1013.3
2017-07-02T16:13:00.693Z,1013.3
2017-07-02T16:14:02.105Z,1013.3
2017-07-02T16:15:03.779Z,1013.4
2017-07-02T16:16:05.189Z,1013.5
2017-07-02T16:17:06.863Z,1013.5
2017-07-02T16:18:08.278Z,1013.5
2017-07-02T16:19:09.951Z,1013.4
2017-07-02T16:20:11.361Z,1013.3
2017-07-02T16:21:12.830Z,1013.4
2017-07-02T16:22:14.240Z,1013.4
2017-07-02T16:23:15.710Z,1013.5
2017-07-02T16:24:17.500Z,1013.6
2017-07-02T16:25:19.001Z,1013.5
2017-07-02T16:26:20.411Z,1013.6
2017-07-02T16:27:21.818Z,1013.7
2017-07-02T16:28:23.322Z,1013.5
2017-07-02T16:29:24.733Z,1013.6
2017-07-02T16:30:26.147Z,1013.6
2017-07-02T16:31:27.644Z,1013.6
2017-07-02T16:32:29.056Z,1013.7
2017-07-02T16:33:30.468Z,1013.7
2017-07-02T16:34:31.965Z,1013.6
2017-07-02T16:35:33.371Z,1013.5
2017-07-02T16:36:34.782Z,1013.5
2017-07-02T16:37:36.284Z,1013.6
2017-07-02T16:38:37.695Z,1013.7
2017-07-02T16:39:39.164Z,1013.7
2017-07-02T16:40:40.577Z,1013.7
2017-07-02T16:41:42.046Z,1013.7
2017-07-02T16:42:43.459Z,1013.7
2017-07-02T16:43:44.926Z,1013.7
2017-07-02T16:44:46.339Z,1013.7
2017-07-02T16:45:47.750Z,1013.8
2017-07-02T16:46:49.247Z,1013.8
2017-07-02T16:47:50.665Z,1013.7
2017-07-02T16:48:52.071Z,1013.7
2017-07-02T16:49:53.567Z,1013.7
2017-07-02T16:50:54.975Z,1013.7
2017-07-02T16:51:56.385Z,1013.7
2017-07-02T16:52:57.887Z,1013.8
2017-07-02T16:53:59.302Z,1013.8
2017-07-02T16:55:00.802Z,1013.8
2017-07-02T16:56:02.208Z,1013.9
2017-07-02T16:57:03.854Z,1013.8
2017-07-02T16:58:05.271Z,1013.8
2017-07-02T16:59:07.232Z,1013.9
2017-07-02T17:00:08.640Z,1013.9
2017-07-02T17:01:10.230Z,1013.9
2017-07-02T17:02:11.649Z,1013.9
2017-07-02T17:03:13.110Z,1013.9
2017-07-02T17:04:14.896Z,1013.9
2017-07-02T17:05:16.400Z,1014.0
2017-07-02T17:06:17.811Z,1014.0
2017-07-02T17:07:19.221Z,1014.0
2017-07-02T17:08:20.720Z,1014.0
2017-07-02T17:09:22.132Z,1014.0
2017-07-02T17:10:23.539Z,1014.0
2017-07-02T17:11:25.041Z,1014.0
2017-07-02T17:12:26.452Z,1014.0
2017-07-02T17:13:27.861Z,1014.0
2017-07-02T17:14:29.745Z,1013.9
2017-07-02T17:15:31.156Z,1013.9
2017-07-02T17:16:32.566Z,1014.0
2017-07-02T17:17:34.091Z,1013.9
2017-07-02T17:18:35.499Z,1014.0
2017-07-02T17:19:36.917Z,1013.9
2017-07-02T17:20:38.412Z,1013.9
2017-07-02T17:21:39.823Z,1013.8
2017-07-02T17:22:41.254Z,1013.9
2017-07-02T17:23:42.729Z,1013.8
2017-07-02T17:24:44.145Z,1013.8
2017-07-02T17:25:45.551Z,1013.9
2017-07-02T17:26:47.054Z,1014.0
2017-07-02T17:27:48.464Z,1014.0
2017-07-02T17:28:49.950Z,1014.0
2017-07-02T17:29:51.362Z,1014.0
2017-07-02T17:30:52.892Z,1014.1
2017-07-02T17:31:54.269Z,1014.1
2017-07-02T17:32:55.990Z,1014.1
2017-07-02T17:33:57.404Z,1014.0
2017-07-02T17:34:58.986Z,1014.0
2017-07-02T17:36:00.396Z,1014.0
2017-07-02T17:37:01.873Z,1013.9
2017-07-02T17:38:03.281Z,1013.9
2017-07-02T17:39:04.684Z,1013.9
2017-07-02T17:40:06.187Z,1014.0
2017-07-02T17:41:07.600Z,1014.0
2017-07-02T17:42:09.009Z,1014.0
2017-07-02T17:43:10.509Z,1014.0
2017-07-02T17:44:11.921Z,1014.0
2017-07-02T17:45:13.393Z,1014.0
2017-07-02T17:46:14.799Z,1014.0
2017-07-02T17:47:16.204Z,1014.0
2017-07-02T17:48:17.711Z,1014.0
2017-07-02T17:49:19.499Z,1014.1
2017-07-02T17:50:20.912Z,1014.1
2017-07-02T17:51:22.441Z,1014.0
2017-07-02T17:52:23.852Z,1014.1
2017-07-02T17:53:25.260Z,1014.1
2017-07-02T17:54:26.901Z,1014.2
2017-07-02T17:55:28.307Z,1014.1
2017-07-02T17:56:29.719Z,1014.1
2017-07-02T17:57:31.285Z,1014.1
2017-07-02T17:58:32.697Z,1014.2
2017-07-02T17:59:34.494Z,1014.2
2017-07-02T18:00:36.015Z,1014.2
2017-07-02T18:01:37.804Z,1014.2
2017-07-02T18:02:39.212Z,1014.2
2017-07-02T18:03:40.746Z,1014.2
2017-07-02T18:04:42.251Z,1014.2
2017-07-02T18:05:43.623Z,1014.2
2017-07-02T18:06:45.048Z,1014.3
2017-07-02T18:08:26.416Z,1014.2
2017-07-02T18:09:27.885Z,1014.2
2017-07-02T18:10:49.632Z,1014.2
2017-07-02T18:11:51.429Z,1014.2
2017-07-02T18:13:13.192Z,1014.2
2017-07-02T18:14:14.598Z,1014.2
2017-07-02T18:15:16.006Z,1014.2
2017-07-02T18:16:17.487Z,1014.3
2017-07-02T18:17:18.900Z,1014.3
2017-07-02T18:18:20.304Z,1014.3
2017-07-02T18:19:21.806Z,1014.3
2017-07-02T18:20:23.218Z,1014.4
2017-07-02T18:21:24.689Z,1014.5
2017-07-02T18:22:26.120Z,1014.5
2017-07-02T18:23:27.570Z,1014.4
2017-07-02T18:24:28.984Z,1014.3
2017-07-02T18:25:30.448Z,1014.4
2017-07-02T18:26:31.859Z,1014.4
2017-07-02T18:27:33.330Z,1014.4
2017-07-02T18:28:34.748Z,1014.4
2017-07-02T18:29:36.207Z,1014.4
2017-07-02T18:30:37.622Z,1014.4
2017-07-02T18:31:39.090Z,1014.4
2017-07-02T18:32:40.499Z,1014.5
2017-07-02T18:33:41.990Z,1014.5
2017-07-02T18:34:43.420Z,1014.4
2017-07-02T18:35:44.852Z,1014.5
2017-07-02T18:36:46.258Z,1014.5
2017-07-02T18:37:47.745Z,1014.5
2017-07-02T18:38:49.157Z,1014.5
2017-07-02T18:39:50.610Z,1014.5
2017-07-02T18:40:52.025Z,1014.6
2017-07-02T18:41:53.491Z,1014.6
2017-07-02T18:42:54.916Z,1014.6
2017-07-02T18:43:56.327Z,1014.6
2017-07-02T18:44:57.816Z,1014.6
2017-07-02T18:45:59.228Z,1014.7
2017-07-02T18:47:00.664Z,1014.6
2017-07-02T18:48:02.137Z,1014.6
2017-07-02T18:49:03.567Z,1014.7
2017-07-02T18:50:05.015Z,1014.8
2017-07-02T18:51:06.564Z,1014.7
2017-07-02T18:52:07.974Z,1014.6
2017-07-02T18:53:09.386Z,1014.7
2017-07-02T18:54:11.211Z,1014.7
2017-07-02T18:55:12.626Z,1014.7
2017-07-02T18:56:14.168Z,1014.7
2017-07-02T18:57:15.577Z,1014.7
2017-07-02T18:58:17.253Z,1014.7
2017-07-02T18:59:18.661Z,1014.7
2017-07-02T19:00:20.339Z,1014.7
2017-07-02T19:01:21.757Z,1014.8
2017-07-02T19:02:23.426Z,1014.8
2017-07-02T19:03:24.832Z,1014.8
2017-07-02T19:04:26.509Z,1014.8
2017-07-02T19:05:27.931Z,1014.8
2017-07-02T19:06:29.596Z,1014.8
2017-07-02T19:07:31.006Z,1014.8
2017-07-02T19:08:32.680Z,1014.8
2017-07-02T19:09:34.102Z,1014.9
2017-07-02T19:10:35.765Z,1014.9
2017-07-02T19:11:37.184Z,1014.9
2017-07-02T19:12:38.852Z,1014.9
2017-07-02T19:13:40.258Z,1014.9
2017-07-02T19:14:41.939Z,1014.9
2017-07-02T19:15:43.349Z,1015.0
2017-07-02T19:16:45.022Z,1015.0
2017-07-02T19:17:46.467Z,1015.0
2017-07-02T19:18:48.106Z,1015.1
2017-07-02T19:19:49.513Z,1015.0
2017-07-02T19:20:51.193Z,1015.0
2017-07-02T19:21:52.603Z,1015.0
2017-07-02T19:22:54.278Z,1015.0
2017-07-02T19:23:55.691Z,1015.0
2017-07-02T19:24:57.364Z,1015.1
2017-07-02T19:25:58.780Z,1015.0
2017-07-02T19:27:00.457Z,1015.0
2017-07-02T19:28:01.866Z,1015.1